Time;durP1;ratioP1;P1;durP2;ratioP2;P2;SDS_P1;SDS_P2;PMS_P1;PMS_P2;Temp;Humidity;BMP_temperature;BMP_pressure;BME280_temperature;BME280_humidity;BME280_pressure;Samples;Min_cycle;Max_cycle;Signal;HPM_P1;HPM_P2
2021/11/08 00:01:39;;;;;;;3.90;1.93;;;8.90;1.00;;;;;;5102568;28;20957;-57
2021/11/08 00:04:05;;;;;;;4.07;2.20;;;9.10;1.00;;;;;;5107125;28;20477;-58
2021/11/08 00:06:32;;;;;;;4.20;2.83;;;;;;;;;;5098369;28;20515;-59
2021/11/08 00:08:58;;;;;;;7.57;2.60;;;;;;;;;;5104047;28;20818;-58
2021/11/08 00:11:25;;;;;;;3.00;1.87;;;9.10;1.00;;;;;;5109639;28;20475;-58
2021/11/08 00:13:51;;;;;;;12.73;2.97;;;;;;;;;;5098465;28;20461;-59
2021/11/08 00:21:36;;;;;;;4.70;1.77;;;;;;;;;;5106768;28;20581;-58
2021/11/08 00:24:03;;;;;;;7.13;2.10;;;9.30;1.00;;;;;;5097466;28;20798;-59
2021/11/08 00:26:28;;;;;;;7.40;2.00;;;9.90;1.00;;;;;;5096664;28;20424;-59
2021/11/08 00:28:54;;;;;;;6.10;2.10;;;;;;;;;;5104420;28;20518;-58
2021/11/08 00:31:20;;;;;;;2.73;1.80;;;9.50;1.00;;;;;;5103633;28;20274;-57
2021/11/08 00:33:46;;;;;;;5.03;1.40;;;;;;;;;;5094105;28;20979;-58
2021/11/08 00:36:12;;;;;;;5.00;1.97;;;;;;;;;;5103705;28;20514;-59
2021/11/08 00:38:38;;;;;;;3.23;1.70;;;;;;;;;;5105155;28;20448;-57
2021/11/08 00:41:04;;;;;;;5.53;2.67;;;;;;;;;;5104912;28;20426;-57
2021/11/08 00:43:31;;;;;;;8.53;2.20;;;;;;;;;;5109515;28;20436;-57
2021/11/08 00:45:57;;;;;;;6.20;1.77;;;9.80;1.00;;;;;;5103741;28;20911;-59
2021/11/08 00:48:28;;;;;;;6.73;2.47;;;9.40;1.00;;;;;;5092940;28;20516;-58
2021/11/08 00:50:54;;;;;;;5.57;1.90;;;;;;;;;;5097224;28;20468;-58
2021/11/08 00:53:20;;;;;;;5.67;1.70;;;9.50;1.00;;;;;;5091495;28;20448;-58
2021/11/08 00:55:47;;;;;;;5.30;1.73;;;9.50;1.00;;;;;;5106885;28;20498;-57
2021/11/08 00:58:19;;;;;;;4.10;1.63;;;;;;;;;;5109324;28;20455;-58
2021/11/08 01:00:45;;;;;;;6.07;2.33;;;9.50;1.00;;;;;;5094190;28;20473;-57
2021/11/08 01:03:14;;;;;;;4.83;1.60;;;;;;;;;;5098235;28;20447;-58
2021/11/08 01:05:40;;;;;;;6.43;2.33;;;;;;;;;;5096068;28;20810;-58
2021/11/08 01:08:06;;;;;;;3.90;2.23;;;9.50;1.00;;;;;;5111399;28;20565;-58
2021/11/08 01:10:32;;;;;;;3.20;1.50;;;;;;;;;;5095246;28;20494;-59
2021/11/08 01:12:58;;;;;;;3.80;1.63;;;;;;;;;;5110154;28;20810;-58
2021/11/08 01:15:24;;;;;;;7.73;2.47;;;9.10;1.00;;;;;;5104397;28;20440;-58
2021/11/08 01:17:51;;;;;;;7.23;2.00;;;9.80;1.00;;;;;;5087672;28;20476;-58
2021/11/08 01:20:17;;;;;;;5.30;2.50;;;9.60;1.00;;;;;;5083206;28;20862;-58
2021/11/08 01:22:43;;;;;;;4.23;1.63;;;9.90;1.00;;;;;;5076726;28;20449;-57
2021/11/08 01:25:10;;;;;;;6.97;1.87;;;9.50;1.00;;;;;;5098661;28;20440;-59
2021/11/08 01:27:40;;;;;;;5.77;2.03;;;9.50;1.00;;;;;;5102683;28;20194;-58
2021/11/08 01:30:12;;;;;;;8.30;2.17;;;9.70;1.00;;;;;;5094128;28;20503;-57
2021/11/08 01:32:38;;;;;;;11.03;4.57;;;;;;;;;;5091944;28;20451;-58
2021/11/08 01:35:04;;;;;;;5.37;2.13;;;;;;;;;;5104333;28;20419;-57
2021/11/08 01:37:30;;;;;;;7.87;2.70;;;9.90;1.00;;;;;;5110191;28;20413;-59
2021/11/08 01:39:57;;;;;;;7.10;2.20;;;9.60;1.00;;;;;;5101523;28;20502;-57
2021/11/08 01:42:23;;;;;;;3.33;1.67;;;;;;;;;;5075720;28;20243;-57
2021/11/08 01:44:48;;;;;;;12.90;2.23;;;9.70;1.00;;;;;;5094041;28;20544;-58
2021/11/08 01:47:14;;;;;;;6.90;2.00;;;9.80;1.00;;;;;;5093934;28;20518;-58
2021/11/08 01:49:41;;;;;;;8.50;2.17;;;9.60;1.00;;;;;;5094715;28;20234;-58
2021/11/08 01:52:11;;;;;;;4.03;1.67;;;9.80;1.00;;;;;;5097291;28;20964;-59
2021/11/08 01:54:38;;;;;;;7.40;2.47;;;9.90;1.00;;;;;;5100965;28;20477;-58
2021/11/08 01:57:04;;;;;;;7.83;2.10;;;;;;;;;;5091466;28;20408;-57
2021/11/08 01:59:32;;;;;;;5.80;2.20;;;9.90;1.00;;;;;;5102365;28;20414;-58
2021/11/08 02:01:58;;;;;;;5.83;2.00;;;9.40;1.00;;;;;;5105952;28;20423;-59
2021/11/08 02:04:24;;;;;;;4.63;1.67;;;;;;;;;;5105188;28;20423;-58
2021/11/08 02:06:51;;;;;;;4.27;1.97;;;9.60;1.00;;;;;;5109957;28;20439;-58
2021/11/08 02:09:17;;;;;;;8.50;2.03;;;;;;;;;;5102897;28;20507;-57
2021/11/08 02:11:43;;;;;;;4.27;2.07;;;10.00;1.00;;;;;;5100106;28;20605;-58
2021/11/08 02:14:09;;;;;;;4.50;2.10;;;9.80;1.00;;;;;;5103421;28;20812;-58
2021/11/08 02:16:35;;;;;;;6.13;2.23;;;;;;;;;;5093276;28;20812;-59
2021/11/08 02:19:03;;;;;;;8.27;2.17;;;9.40;1.00;;;;;;5092854;28;20566;-60
2021/11/08 02:21:30;;;;;;;6.30;3.80;;;9.50;1.00;;;;;;5093933;28;20442;-57
2021/11/08 02:23:59;;;;;;;8.70;2.43;;;9.50;1.00;;;;;;5102197;28;20444;-59
2021/11/08 02:26:25;;;;;;;3.70;2.03;;;9.40;1.00;;;;;;5090920;28;20434;-58
2021/11/08 02:28:52;;;;;;;8.70;2.07;;;9.60;1.00;;;;;;5097505;28;20419;-58
2021/11/08 02:31:22;;;;;;;6.63;2.40;;;9.60;1.00;;;;;;5109315;28;21165;-59
2021/11/08 02:33:50;;;;;;;8.33;2.43;;;9.70;1.00;;;;;;5105741;28;20963;-58
2021/11/08 02:36:16;;;;;;;5.53;2.10;;;;;;;;;;5080110;28;20443;-58
2021/11/08 02:38:47;;;;;;;5.60;1.97;;;9.60;1.00;;;;;;5097577;28;20441;-58
2021/11/08 02:41:14;;;;;;;5.30;2.20;;;9.70;1.00;;;;;;5098866;28;20500;-58
2021/11/08 02:43:40;;;;;;;4.60;2.07;;;;;;;;;;5091932;28;20420;-58
2021/11/08 02:46:09;;;;;;;8.40;2.50;;;9.60;1.00;;;;;;5092419;28;20428;-59
2021/11/08 02:48:36;;;;;;;6.30;2.23;;;9.70;1.00;;;;;;5102686;28;22336;-59
2021/11/08 02:51:23;;;;;;;7.50;2.47;;;10.00;1.00;;;;;;5109471;28;20505;-58
2021/11/08 02:53:52;;;;;;;7.10;2.20;;;9.60;1.00;;;;;;5110095;28;20534;-58
2021/11/08 02:56:18;;;;;;;5.50;2.23;;;;;;;;;;5103348;28;20455;-59
2021/11/08 02:58:45;;;;;;;7.20;2.07;;;9.60;1.00;;;;;;5103921;28;20445;-59
2021/11/08 03:01:15;;;;;;;3.77;2.00;;;9.80;1.00;;;;;;5096460;28;20443;-58
2021/11/08 03:03:44;;;;;;;8.10;2.37;;;;;;;;;;5110656;28;21077;-59
2021/11/08 03:06:31;;;;;;;5.30;1.90;;;9.90;1.00;;;;;;5110829;28;20440;-58
2021/11/08 03:09:19;;;;;;;6.07;1.80;;;9.70;1.00;;;;;;5105981;28;20866;-59
2021/11/08 03:11:45;;;;;;;6.00;1.90;;;9.50;1.00;;;;;;5111783;28;20443;-59
2021/11/08 03:14:16;;;;;;;4.43;1.93;;;9.70;1.00;;;;;;5111171;28;20467;-58
2021/11/08 03:16:56;;;;;;;8.03;2.13;;;9.80;1.00;;;;;;5099192;28;20445;-58
2021/11/08 03:19:34;;;;;;;8.63;2.40;;;;;;;;;;5098551;28;20869;-59
2021/11/08 03:22:01;;;;;;;10.37;1.80;;;10.30;1.00;;;;;;5096591;28;20462;-59
2021/11/08 03:24:45;;;;;;;5.23;2.00;;;9.90;1.00;;;;;;5108656;28;20971;-57
2021/11/08 03:27:19;;;;;;;6.00;2.17;;;9.90;1.00;;;;;;5102362;28;20505;-58
2021/11/08 03:29:45;;;;;;;4.63;1.73;;;10.00;1.00;;;;;;5097973;28;20443;-58
2021/11/08 03:32:16;;;;;;;5.63;2.50;;;10.00;1.00;;;;;;5091984;28;20468;-59
2021/11/08 03:34:59;;;;;;;6.60;2.43;;;9.90;1.00;;;;;;5105424;28;20468;-58
2021/11/08 03:37:25;;;;;;;5.80;2.80;;;;;;;;;;5102410;28;20434;-58
2021/11/08 03:39:51;;;;;;;10.30;2.43;;;10.20;1.00;;;;;;5104249;28;20433;-58
2021/11/08 03:42:18;;;;;;;7.20;2.83;;;9.90;1.00;;;;;;5096308;28;20452;-57
2021/11/08 03:44:45;;;;;;;3.63;1.90;;;10.10;1.00;;;;;;5103461;28;20194;-58
2021/11/08 03:47:11;;;;;;;6.87;2.30;;;10.00;1.00;;;;;;5107159;28;20454;-58
2021/11/08 03:49:37;;;;;;;6.17;2.30;;;9.90;1.00;;;;;;5111437;28;20440;-59
2021/11/08 03:52:03;;;;;;;6.43;2.80;;;10.00;1.00;;;;;;5095347;28;20211;-58
2021/11/08 03:54:29;;;;;;;5.47;2.20;;;10.10;1.00;;;;;;5109270;28;20183;-58
2021/11/08 03:56:55;;;;;;;5.27;1.80;;;9.90;1.00;;;;;;5112425;28;20431;-57
2021/11/08 03:59:21;;;;;;;8.00;1.80;;;;;;;;;;5110926;28;20464;-58
2021/11/08 04:01:47;;;;;;;6.00;2.10;;;;;;;;;;5103563;28;20198;-58
2021/11/08 04:04:13;;;;;;;5.90;1.77;;;;;;;;;;5103764;28;20449;-58
2021/11/08 04:06:39;;;;;;;6.63;2.80;;;;;;;;;;5097271;28;20557;-58
2021/11/08 04:09:07;;;;;;;4.70;2.53;;;9.90;1.00;;;;;;5095891;28;20442;-58
2021/11/08 04:11:33;;;;;;;9.80;2.30;;;10.20;1.00;;;;;;5110182;28;20537;-58
2021/11/08 04:13:59;;;;;;;4.00;1.93;;;;;;;;;;5108706;28;20626;-60
2021/11/08 04:16:27;;;;;;;7.07;2.20;;;10.00;1.00;;;;;;5101903;28;20183;-58
2021/11/08 04:18:56;;;;;;;9.73;2.50;;;10.10;1.00;;;;;;5108889;28;20830;-59
2021/11/08 04:21:22;;;;;;;4.10;2.23;;;10.10;1.00;;;;;;5075534;28;20811;-57
2021/11/08 04:23:49;;;;;;;6.43;1.60;;;;;;;;;;5091581;28;20833;-59
2021/11/08 04:26:24;;;;;;;8.30;2.10;;;;;;;;;;5107481;28;20487;-58
2021/11/08 04:28:55;;;;;;;7.43;2.07;;;10.10;1.00;;;;;;5092814;28;20448;-59
2021/11/08 04:31:22;;;;;;;9.13;1.90;;;10.20;1.00;;;;;;5097534;28;20442;-59
2021/11/08 04:33:55;;;;;;;5.63;2.10;;;;;;;;;;5096194;28;20471;-58
2021/11/08 04:38:54;;;;;;;9.93;2.60;;;;;;;;;;5095357;28;20498;-57
2021/11/08 04:54:21;;;;;;;8.57;2.37;;;10.50;1.00;;;;;;5109059;28;20440;-58
2021/11/08 04:57:19;;;;;;;5.93;1.77;;;9.80;1.00;;;;;;5092213;28;20911;-58
2021/11/08 05:31:55;;;;;;;8.87;2.70;;;9.70;1.00;;;;;;5096888;28;20940;-59
2021/11/08 05:34:21;;;;;;;5.67;1.93;;;;;;;;;;5103889;28;20447;-58
2021/11/08 05:36:47;;;;;;;7.73;1.90;;;;;;;;;;5096124;28;20175;-59
2021/11/08 05:39:13;;;;;;;6.90;2.50;;;;;;;;;;5108005;28;20451;-58
2021/11/08 05:41:40;;;;;;;10.57;2.17;;;9.80;1.00;;;;;;5093341;28;20423;-57
2021/11/08 05:44:07;;;;;;;8.83;2.30;;;;;;;;;;5101208;28;20461;-58
2021/11/08 05:46:34;;;;;;;4.13;2.57;;;9.70;1.00;;;;;;5104610;28;20452;-60
2021/11/08 05:49:00;;;;;;;7.67;3.10;;;;;;;;;;5098649;28;20444;-58
2021/11/08 05:51:27;;;;;;;4.60;2.13;;;9.90;1.00;;;;;;5105338;28;20435;-59
2021/11/08 05:53:53;;;;;;;7.60;2.30;;;9.80;1.00;;;;;;5095430;28;20535;-57
2021/11/08 05:59:56;;;;;;;9.93;2.60;;;;;;;;;;5094033;28;20927;-59
2021/11/08 06:49:03;;;;;;;3.73;2.20;;;;;;;;;;5104998;28;20457;-59
2021/11/08 06:51:23;;;;;;;8.83;2.70;;;;;;;;;;5112935;28;20464;-58
2021/11/08 06:53:50;;;;;;;8.83;2.70;;;10.20;1.00;;;;;;5104710;28;20439;-59
2021/11/08 06:56:24;;;;;;;12.87;3.50;;;;;;;;;;5089165;28;20449;-58
2021/11/08 06:58:50;;;;;;;7.67;2.97;;;10.50;1.00;;;;;;5102152;28;20478;-58
2021/11/08 07:01:16;;;;;;;6.67;3.40;;;;;;;;;;5112857;28;20476;-57
2021/11/08 07:03:42;;;;;;;6.77;2.60;;;10.20;1.00;;;;;;5111385;28;20265;-58
2021/11/08 07:06:07;;;;;;;9.23;2.50;;;10.20;1.00;;;;;;5108257;28;20887;-58
2021/11/08 07:08:33;;;;;;;7.93;3.47;;;10.50;1.00;;;;;;5097776;28;20613;-57
2021/11/08 07:10:59;;;;;;;9.07;2.83;;;10.40;1.00;;;;;;5076008;28;20714;-57
2021/11/08 07:13:24;;;;;;;6.53;2.50;;;;;;;;;;5098467;28;20224;-58
2021/11/08 07:15:50;;;;;;;6.70;2.93;;;;;;;;;;5098933;28;20202;-58
2021/11/08 07:18:16;;;;;;;3.80;2.10;;;10.30;1.00;;;;;;5102288;28;20460;-58
2021/11/08 07:20:42;;;;;;;5.20;2.50;;;;;;;;;;5105005;28;20483;-58
2021/11/08 07:23:08;;;;;;;3.33;1.93;;;;;;;;;;5100444;28;20178;-57
2021/11/08 07:25:34;;;;;;;7.30;2.20;;;10.10;1.00;;;;;;5082784;28;20420;-58
2021/11/08 07:28:03;;;;;;;7.80;2.97;;;;;;;;;;5099631;28;20417;-56
2021/11/08 07:30:30;;;;;;;5.03;2.20;;;;;;;;;;5095613;28;20232;-58
2021/11/08 07:32:56;;;;;;;7.20;2.97;;;10.40;1.00;;;;;;5112078;28;20415;-58
2021/11/08 07:35:22;;;;;;;8.30;2.80;;;;;;;;;;5110187;28;20465;-56
2021/11/08 07:37:48;;;;;;;9.43;2.57;;;;;;;;;;5085205;28;20190;-57
2021/11/08 07:40:14;;;;;;;5.93;2.10;;;;;;;;;;5095657;28;20416;-56
2021/11/08 07:42:42;;;;;;;8.23;2.93;;;10.90;1.00;;;;;;5099211;28;20556;-57
2021/11/08 07:45:08;;;;;;;8.80;2.50;;;10.50;1.00;;;;;;5096620;28;20416;-58
2021/11/08 07:47:34;;;;;;;8.70;2.60;;;;;;;;;;5100701;28;20818;-58
2021/11/08 07:50:00;;;;;;;7.90;3.00;;;;;;;;;;5109312;28;20406;-58
2021/11/08 07:52:26;;;;;;;9.20;2.83;;;10.50;1.00;;;;;;5103799;28;20933;-59
2021/11/08 07:54:52;;;;;;;8.30;2.60;;;;;;;;;;5093964;28;20472;-59
2021/11/08 07:57:17;;;;;;;6.77;2.50;;;11.00;1.00;;;;;;5112310;28;20183;-57
2021/11/08 07:59:45;;;;;;;5.07;2.03;;;10.60;1.00;;;;;;5093353;28;20745;-57
2021/11/08 08:02:11;;;;;;;10.80;3.03;;;;;;;;;;5109698;28;20208;-57
2021/11/08 08:04:37;;;;;;;8.13;2.63;;;10.60;1.00;;;;;;5110857;28;20534;-58
2021/11/08 08:07:03;;;;;;;7.60;3.10;;;;;;;;;;5085816;28;20990;-58
2021/11/08 08:09:29;;;;;;;9.43;3.30;;;;;;;;;;5094120;28;20201;-58
2021/11/08 08:11:55;;;;;;;6.70;2.70;;;;;;;;;;5112324;28;21204;-59
2021/11/08 08:14:21;;;;;;;5.57;2.63;;;;;;;;;;5112480;28;20481;-58
2021/11/08 08:16:47;;;;;;;11.60;2.80;;;;;;;;;;5112147;28;20521;-59
2021/11/08 08:19:13;;;;;;;3.57;2.23;;;11.60;1.00;;;;;;5112489;28;20442;-57
2021/11/08 08:21:39;;;;;;;5.23;2.67;;;;;;;;;;5111935;28;20439;-60
2021/11/08 08:24:05;;;;;;;7.17;2.60;;;;;;;;;;5112152;28;20424;-59
2021/11/08 08:26:34;;;;;;;6.63;3.10;;;10.90;1.00;;;;;;5093852;28;20476;-57
2021/11/08 08:29:03;;;;;;;7.63;2.30;;;;;;;;;;5112160;28;20451;-58
2021/11/08 08:31:34;;;;;;;8.20;2.57;;;10.40;1.00;;;;;;5105823;28;20523;-58
2021/11/08 08:34:00;;;;;;;4.87;2.10;;;10.60;1.00;;;;;;5091475;28;20441;-58
2021/11/08 08:36:27;;;;;;;6.97;2.87;;;;;;;;;;5073498;28;20440;-58
2021/11/08 08:38:53;;;;;;;6.13;2.87;;;;;;;;;;5091276;28;20171;-58
2021/11/08 08:41:19;;;;;;;6.20;2.87;;;10.80;1.00;;;;;;5091608;28;20782;-60
2021/11/08 08:43:45;;;;;;;12.90;2.77;;;;;;;;;;5091309;28;20784;-58
2021/11/08 08:46:13;;;;;;;7.50;2.13;;;10.60;1.00;;;;;;5091729;28;20441;-57
2021/11/08 08:48:39;;;;;;;7.47;2.70;;;;;;;;;;5099642;28;20472;-58
2021/11/08 08:51:05;;;;;;;8.60;2.27;;;10.90;1.00;;;;;;5110861;28;20441;-58
2021/11/08 08:53:31;;;;;;;13.50;2.43;;;10.50;1.00;;;;;;5104608;28;20426;-61
2021/11/08 08:55:57;;;;;;;12.90;2.73;;;;;;;;;;5091395;28;20408;-59
2021/11/08 08:58:23;;;;;;;8.83;2.90;;;;;;;;;;5095812;28;20261;-58
2021/11/08 09:00:49;;;;;;;10.03;2.77;;;10.60;1.00;;;;;;5102918;28;20776;-58
2021/11/08 09:03:18;;;;;;;6.13;2.40;;;10.90;1.00;;;;;;5090897;28;20494;-58
2021/11/08 09:05:45;;;;;;;8.90;3.00;;;11.00;1.00;;;;;;5091305;28;20659;-58
2021/11/08 09:08:11;;;;;;;5.43;2.47;;;11.00;1.00;;;;;;5090922;28;20480;-58
2021/11/08 09:10:38;;;;;;;5.60;2.33;;;10.60;1.00;;;;;;5091107;28;20477;-58
2021/11/08 09:13:06;;;;;;;4.77;2.03;;;10.80;1.00;;;;;;5090854;28;20448;-58
2021/11/08 09:15:33;;;;;;;5.23;2.23;;;;;;;;;;5072794;28;20863;-58
2021/11/08 09:18:00;;;;;;;12.13;3.20;;;11.10;1.00;;;;;;5072570;28;20943;-57
2021/11/08 09:20:27;;;;;;;5.90;2.40;;;10.80;1.00;;;;;;5091232;28;21007;-58
2021/11/08 09:22:53;;;;;;;6.60;2.43;;;10.50;1.00;;;;;;5091100;28;20453;-59
2021/11/08 09:25:21;;;;;;;8.13;3.13;;;11.30;1.00;;;;;;5090541;28;21006;-57
2021/11/08 09:27:49;;;;;;;4.70;2.50;;;11.30;1.00;;;;;;5091032;28;20767;-57
2021/11/08 09:30:17;;;;;;;5.20;2.13;;;11.20;1.00;;;;;;5090979;28;20429;-57
2021/11/08 09:32:43;;;;;;;4.77;2.80;;;10.90;1.00;;;;;;5090767;28;20514;-57
2021/11/08 09:35:10;;;;;;;9.43;2.67;;;11.10;1.00;;;;;;5090670;28;20433;-58
2021/11/08 09:37:42;;;;;;;10.33;2.97;;;;;;;;;;5090635;28;20433;-57
2021/11/08 09:40:09;;;;;;;5.20;2.27;;;;;;;;;;5091997;28;20430;-58
2021/11/08 09:42:35;;;;;;;7.20;2.03;;;11.40;1.00;;;;;;5090173;28;20408;-58
2021/11/08 09:45:05;;;;;;;9.00;2.33;;;11.10;1.00;;;;;;5090243;28;20412;-58
2021/11/08 09:47:32;;;;;;;8.33;2.23;;;11.20;1.00;;;;;;5090298;28;20984;-58
2021/11/08 09:50:00;;;;;;;10.93;2.77;;;11.30;1.00;;;;;;5090594;28;20459;-58
2021/11/08 09:52:27;;;;;;;7.00;2.43;;;;;;;;;;5072068;28;20467;-58
2021/11/08 09:54:53;;;;;;;5.50;2.00;;;;;;;;;;5090706;28;20473;-58
2021/11/08 09:57:23;;;;;;;6.30;2.43;;;11.40;1.00;;;;;;5090320;28;20511;-59
2021/11/08 09:59:51;;;;;;;6.70;2.57;;;;;;;;;;5090428;28;20407;-59
2021/11/08 10:02:17;;;;;;;5.77;2.40;;;11.70;1.00;;;;;;5091700;28;20436;-58
2021/11/08 10:04:43;;;;;;;6.07;2.10;;;11.50;1.00;;;;;;5076413;28;20941;-58
2021/11/08 10:07:09;;;;;;;7.07;2.20;;;11.40;1.00;;;;;;5094558;28;20182;-57
2021/11/08 10:09:36;;;;;;;8.97;1.97;;;11.50;1.00;;;;;;5096242;28;20456;-58
2021/11/08 10:12:07;;;;;;;5.43;2.57;;;11.50;1.00;;;;;;5094299;28;20504;-58
2021/11/08 10:14:33;;;;;;;5.60;2.20;;;11.40;1.00;;;;;;5094435;28;20403;-58
2021/11/08 10:17:01;;;;;;;5.90;1.97;;;;;;;;;;5094742;28;20448;-58
2021/11/08 10:19:31;;;;;;;5.27;2.10;;;;;;;;;;5093977;28;20433;-59
2021/11/08 10:21:57;;;;;;;8.57;2.63;;;11.00;1.00;;;;;;5094529;28;20773;-57
2021/11/08 10:24:31;;;;;;;6.80;2.17;;;11.20;1.00;;;;;;5094155;28;20435;-58
2021/11/08 10:27:00;;;;;;;9.50;2.67;;;11.10;1.00;;;;;;5094247;28;20279;-58
2021/11/08 10:29:26;;;;;;;4.53;2.20;;;11.30;1.00;;;;;;5093727;28;20412;-58
2021/11/08 10:31:56;;;;;;;7.13;2.40;;;11.20;1.00;;;;;;5114064;28;20470;-58
2021/11/08 10:34:24;;;;;;;7.97;2.57;;;11.60;1.00;;;;;;5114536;28;20781;-58
2021/11/08 10:37:06;;;;;;;3.37;2.10;;;11.70;1.00;;;;;;5114213;28;20419;-57
2021/11/08 10:39:38;;;;;;;6.43;3.20;;;11.60;1.00;;;;;;5114104;28;20826;-59
2021/11/08 10:42:06;;;;;;;6.13;2.00;;;11.60;1.00;;;;;;5114056;28;20447;-58
2021/11/08 10:44:32;;;;;;;3.30;2.37;;;;;;;;;;5114019;28;20411;-58
2021/11/08 10:47:09;;;;;;;8.50;3.90;;;11.90;1.00;;;;;;5095679;28;20472;-58
2021/11/08 10:49:43;;;;;;;3.80;2.20;;;11.90;1.00;;;;;;5113630;28;20446;-59
2021/11/08 10:52:14;;;;;;;4.47;1.97;;;11.80;1.00;;;;;;5113910;28;20469;-59
2021/11/08 10:54:45;;;;;;;7.13;2.30;;;12.00;1.00;;;;;;5105292;28;20433;-58
2021/11/08 10:57:15;;;;;;;6.67;2.60;;;11.80;1.00;;;;;;5093523;28;20787;-58
2021/11/08 10:59:45;;;;;;;5.73;1.90;;;11.50;1.00;;;;;;5093869;28;20429;-59
2021/11/08 11:02:13;;;;;;;4.43;2.00;;;11.80;1.00;;;;;;5093349;28;20443;-58
2021/11/08 11:04:43;;;;;;;7.73;2.00;;;;;;;;;;5093262;28;20420;-58
2021/11/08 11:07:12;;;;;;;3.80;2.17;;;11.50;1.00;;;;;;5105548;28;20927;-59
2021/11/08 11:09:39;;;;;;;5.07;1.80;;;;;;;;;;5113364;28;20497;-59
2021/11/08 11:12:17;;;;;;;8.53;2.40;;;11.70;1.00;;;;;;5080176;28;20446;-58
2021/11/08 11:14:46;;;;;;;3.03;1.70;;;11.70;1.00;;;;;;5073915;28;20468;-57
2021/11/08 11:17:24;;;;;;;6.10;1.90;;;11.90;1.00;;;;;;5093228;28;20441;-58
2021/11/08 11:20:03;;;;;;;6.97;2.23;;;12.00;1.00;;;;;;5092735;28;20437;-59
2021/11/08 11:22:29;;;;;;;7.50;2.73;;;;;;;;;;5093065;28;20436;-58
2021/11/08 11:24:57;;;;;;;5.83;1.90;;;12.30;1.00;;;;;;5111736;28;20437;-59
2021/11/08 11:27:26;;;;;;;4.70;2.57;;;12.00;1.00;;;;;;5113043;28;20414;-57
2021/11/08 11:29:53;;;;;;;16.40;2.67;;;;;;;;;;5112795;28;20589;-57
2021/11/08 11:32:25;;;;;;;6.10;2.10;;;12.00;1.00;;;;;;5103650;28;20923;-57
2021/11/08 11:34:53;;;;;;;8.10;2.50;;;12.20;1.00;;;;;;5112686;28;20456;-60
2021/11/08 11:37:21;;;;;;;10.33;3.13;;;9.40;1.00;;;;;;5081339;28;21069;-59
2021/11/08 11:39:47;;;;;;;5.40;2.30;;;12.10;1.00;;;;;;5092274;28;20404;-57
2021/11/08 11:42:13;;;;;;;5.27;2.20;;;12.30;1.00;;;;;;5074669;28;20983;-57
2021/11/08 11:44:39;;;;;;;4.77;2.80;;;;;;;;;;5074452;28;20502;-59
2021/11/08 11:47:16;;;;;;;6.80;1.87;;;11.90;1.00;;;;;;5092225;28;20187;-57
2021/11/08 11:49:44;;;;;;;5.60;2.77;;;12.10;1.00;;;;;;5092363;28;20773;-58
2021/11/08 11:52:10;;;;;;;4.53;2.50;;;12.70;1.00;;;;;;5092138;28;20919;-58
2021/11/08 11:54:38;;;;;;;7.67;2.43;;;12.40;1.00;;;;;;5092608;28;20445;-58
2021/11/08 11:57:04;;;;;;;5.07;2.00;;;;;;;;;;5092158;28;20888;-58
2021/11/08 11:59:30;;;;;;;5.20;2.20;;;;;;;;;;5092297;28;20765;-58
2021/11/08 12:01:56;;;;;;;7.23;2.60;;;12.00;1.00;;;;;;5093886;28;20496;-57
2021/11/08 12:04:23;;;;;;;5.80;1.97;;;11.90;1.00;;;;;;5073924;28;20430;-58
2021/11/08 12:06:52;;;;;;;6.10;2.70;;;11.90;1.00;;;;;;5091880;28;20419;-58
2021/11/08 12:09:20;;;;;;;4.57;2.30;;;12.00;1.00;;;;;;5091833;28;20517;-58
2021/11/08 12:11:52;;;;;;;9.20;2.13;;;12.70;1.00;;;;;;5092252;28;20435;-59
2021/11/08 12:14:24;;;;;;;7.97;2.20;;;12.20;1.00;;;;;;5091796;28;20419;-57
2021/11/08 12:16:57;;;;;;;8.77;3.03;;;12.00;1.00;;;;;;5091965;28;20927;-58
2021/11/08 12:19:28;;;;;;;7.70;2.27;;;12.10;1.00;;;;;;5091638;28;20464;-59
2021/11/08 12:21:54;;;;;;;6.20;2.50;;;12.20;1.00;;;;;;5091991;28;20441;-57
2021/11/08 12:24:23;;;;;;;10.27;2.07;;;12.00;1.00;;;;;;5091811;28;20479;-57
2021/11/08 12:27:00;;;;;;;8.20;2.30;;;12.20;1.00;;;;;;5090664;28;20429;-58
2021/11/08 12:29:26;;;;;;;9.13;2.40;;;;;;;;;;5091493;28;20441;-58
2021/11/08 12:32:11;;;;;;;5.40;1.80;;;12.30;1.00;;;;;;5104397;28;20483;-57
2021/11/08 12:34:45;;;;;;;8.40;2.37;;;12.30;1.00;;;;;;5112062;28;20825;-58
2021/11/08 12:37:11;;;;;;;7.93;1.97;;;;;;;;;;5111895;28;20406;-59
2021/11/08 12:39:37;;;;;;;6.33;2.50;;;12.50;1.00;;;;;;5111809;28;20410;-59
2021/11/08 12:42:06;;;;;;;7.77;2.30;;;;;;;;;;5093443;28;20781;-59
2021/11/08 12:44:43;;;;;;;7.20;2.30;;;12.40;1.00;;;;;;5111608;28;20186;-58
2021/11/08 12:47:16;;;;;;;8.10;2.40;;;;;;;;;;5067438;28;21088;-58
2021/11/08 12:49:54;;;;;;;6.43;2.37;;;12.30;1.00;;;;;;5066231;28;20537;-58
2021/11/08 12:52:32;;;;;;;9.00;2.73;;;12.30;1.00;;;;;;5067400;28;20952;-57
2021/11/08 12:55:01;;;;;;;9.40;2.80;;;12.20;1.00;;;;;;5067426;28;20445;-59
2021/11/08 12:57:28;;;;;;;4.40;2.80;;;12.10;1.00;;;;;;5066725;28;20413;-58
2021/11/08 12:59:56;;;;;;;7.50;2.30;;;11.80;1.00;;;;;;5066385;28;20434;-60
2021/11/08 13:02:27;;;;;;;5.50;2.40;;;11.90;1.00;;;;;;5067289;28;20525;-59
2021/11/08 13:04:55;;;;;;;5.40;2.20;;;;;;;;;;5067572;28;20409;-59
2021/11/08 13:07:21;;;;;;;6.00;2.40;;;12.10;1.00;;;;;;5067072;28;20542;-58
2021/11/08 13:09:57;;;;;;;5.30;2.10;;;12.00;1.00;;;;;;5067184;28;20446;-58
2021/11/08 13:12:23;;;;;;;5.60;2.20;;;;;;;;;;5067095;28;20454;-59
2021/11/08 13:15:02;;;;;;;4.83;2.00;;;11.90;1.00;;;;;;5067168;28;20401;-58
2021/11/08 13:17:29;;;;;;;5.60;2.00;;;12.10;1.00;;;;;;5066836;28;20430;-60
2021/11/08 13:20:01;;;;;;;8.00;2.73;;;11.90;1.00;;;;;;5066977;28;20413;-58
2021/11/08 13:22:31;;;;;;;6.80;2.70;;;11.90;1.00;;;;;;5066754;28;20487;-58
2021/11/08 13:25:11;;;;;;;5.93;2.63;;;12.30;1.00;;;;;;5066898;28;20821;-59
2021/11/08 13:27:42;;;;;;;8.80;3.80;;;12.20;1.00;;;;;;5066573;28;20413;-59
2021/11/08 13:30:09;;;;;;;2.20;1.40;;;12.10;1.00;;;;;;5066576;28;20947;-58
2021/11/08 13:32:38;;;;;;;4.97;1.70;;;12.40;1.00;;;;;;5077305;28;20446;-58
2021/11/08 13:35:25;;;;;;;9.80;3.50;;;11.80;1.00;;;;;;5066881;28;20470;-58
2021/11/08 13:37:51;;;;;;;9.07;2.63;;;;;;;;;;5066857;28;20438;-59
2021/11/08 13:40:22;;;;;;;8.83;2.30;;;12.20;1.00;;;;;;5066636;28;20477;-58
2021/11/08 13:42:51;;;;;;;7.10;2.37;;;12.70;1.00;;;;;;5066363;28;20405;-58
2021/11/08 13:45:18;;;;;;;6.53;1.80;;;12.10;1.00;;;;;;5066310;28;20488;-58
2021/11/08 13:47:46;;;;;;;4.73;2.27;;;;;;;;;;5066297;28;20434;-58
2021/11/08 13:50:20;;;;;;;5.13;2.30;;;11.90;1.00;;;;;;5066612;28;20496;-57
2021/11/08 13:52:46;;;;;;;6.40;2.10;;;;;;;;;;5066274;28;20492;-59
2021/11/08 13:55:14;;;;;;;4.90;2.40;;;12.00;1.00;;;;;;5066402;28;20458;-59
2021/11/08 13:57:42;;;;;;;4.10;2.17;;;12.50;1.00;;;;;;5058164;28;20949;-58
2021/11/08 14:00:26;;;;;;;6.03;2.17;;;11.90;1.00;;;;;;5052922;28;20446;-59
2021/11/08 14:02:52;;;;;;;5.67;1.63;;;12.00;1.00;;;;;;5052318;28;20768;-59
2021/11/08 14:05:18;;;;;;;4.57;1.80;;;;;;;;;;5053147;28;20410;-59
2021/11/08 14:07:43;;;;;;;8.90;2.20;;;11.70;1.00;;;;;;5052843;28;20260;-58
2021/11/08 14:10:12;;;;;;;7.27;2.10;;;12.30;1.00;;;;;;5052994;28;20458;-58
2021/11/08 14:12:39;;;;;;;6.00;2.00;;;11.90;1.00;;;;;;5052692;28;20188;-58
2021/11/08 14:15:05;;;;;;;9.10;3.30;;;;;;;;;;5052695;28;20452;-59
2021/11/08 14:17:33;;;;;;;4.27;1.93;;;11.90;1.00;;;;;;5052907;28;20488;-58
2021/11/08 14:20:02;;;;;;;11.37;4.07;;;;;;;;;;5052758;28;20468;-59
2021/11/08 14:22:31;;;;;;;6.37;2.00;;;11.80;1.00;;;;;;5051289;28;20424;-59
2021/11/08 14:25:00;;;;;;;6.77;2.67;;;11.90;1.00;;;;;;5052406;28;20500;-59
2021/11/08 14:27:29;;;;;;;4.93;1.80;;;11.60;1.00;;;;;;5052762;28;20439;-58
2021/11/08 14:29:56;;;;;;;5.73;2.10;;;;;;;;;;5052049;28;20417;-60
2021/11/08 14:32:28;;;;;;;3.03;1.83;;;11.70;1.00;;;;;;5052129;28;20479;-60
2021/11/08 14:35:05;;;;;;;6.70;2.30;;;11.80;1.00;;;;;;5052351;28;20413;-60
2021/11/08 14:37:59;;;;;;;6.00;2.97;;;11.80;1.00;;;;;;5067713;28;20438;-58
2021/11/08 14:40:37;;;;;;;5.53;2.13;;;11.70;1.00;;;;;;5072416;28;20421;-59
2021/11/08 14:43:17;;;;;;;3.07;2.07;;;11.70;1.00;;;;;;5072162;28;20413;-59
2021/11/08 14:45:53;;;;;;;5.10;2.10;;;11.60;1.00;;;;;;5054746;28;20524;-58
2021/11/08 14:48:23;;;;;;;3.90;1.87;;;11.50;1.00;;;;;;5052267;28;20412;-60
2021/11/08 14:50:49;;;;;;;6.03;1.83;;;11.70;1.00;;;;;;5052250;28;20471;-60
2021/11/08 14:53:16;;;;;;;5.70;2.00;;;;;;;;;;5052419;28;20945;-59
2021/11/08 14:55:43;;;;;;;4.20;2.00;;;11.90;1.00;;;;;;5051903;28;20853;-58
2021/11/08 14:58:14;;;;;;;5.90;2.47;;;11.70;1.00;;;;;;5051641;28;20492;-57
2021/11/08 15:00:41;;;;;;;8.00;1.87;;;11.60;1.00;;;;;;5051936;28;21036;-57
2021/11/08 15:03:13;;;;;;;5.17;1.87;;;11.70;1.00;;;;;;5051034;28;21017;-59
2021/11/08 15:05:41;;;;;;;3.93;1.70;;;11.50;1.00;;;;;;5051611;28;20425;-58
2021/11/08 15:08:22;;;;;;;7.10;2.73;;;11.60;1.00;;;;;;5051093;28;20402;-58
2021/11/08 15:10:54;;;;;;;5.00;2.10;;;11.50;1.00;;;;;;5051209;28;20438;-59
2021/11/08 15:13:21;;;;;;;3.97;1.63;;;11.30;1.00;;;;;;5051478;28;20434;-59
2021/11/08 15:15:49;;;;;;;4.40;2.27;;;11.50;1.00;;;;;;5051646;28;20779;-59
2021/11/08 15:18:24;;;;;;;5.17;2.00;;;11.50;1.00;;;;;;5051343;28;20454;-57
2021/11/08 15:20:53;;;;;;;4.47;1.43;;;10.80;1.00;;;;;;5051663;28;20517;-60